Time;durP1;ratioP1;P1;durP2;ratioP2;P2;SDS_P1;SDS_P2;PMS_P1;PMS_P2;Temp;Humidity;BMP_temperature;BMP_pressure;BME280_temperature;BME280_humidity;BME280_pressure;Samples;Min_cycle;Max_cycle;Signal;HPM_P1;HPM_P2
2023/09/11 00:01:31;;;;;;;3.13;1.20;;;22.40;99.90;;;;;;5022635;28;20030;-66
2023/09/11 00:03:57;;;;;;;1.15;1.08;;;22.50;99.90;;;;;;5030848;28;20057;-66
2023/09/11 00:06:24;;;;;;;1.05;1.05;;;22.50;99.90;;;;;;5025901;28;20348;-76
2023/09/11 00:08:50;;;;;;;1.65;1.08;;;22.50;99.90;;;;;;5033475;28;20425;-66
2023/09/11 00:11:16;;;;;;;0.40;0.40;;;22.40;99.90;;;;;;5036556;28;20065;-67
2023/09/11 00:13:42;;;;;;;2.83;1.42;;;22.40;99.90;;;;;;5036520;28;20033;-66
2023/09/11 00:16:08;;;;;;;1.33;1.23;;;22.40;99.90;;;;;;5041492;28;20324;-74
2023/09/11 00:18:34;;;;;;;6.57;2.05;;;22.40;99.90;;;;;;5036345;28;20040;-66
2023/09/11 00:21:00;;;;;;;4.28;2.40;;;22.40;99.90;;;;;;5029608;28;20022;-66
2023/09/11 00:23:26;;;;;;;3.00;1.60;;;22.40;99.90;;;;;;5033189;28;20033;-66
2023/09/11 00:25:52;;;;;;;13.00;1.73;;;22.50;99.90;;;;;;5035712;28;20068;-66
2023/09/11 00:28:17;;;;;;;2.30;1.93;;;22.40;99.90;;;;;;5026880;28;20034;-66
2023/09/11 00:30:43;;;;;;;3.25;2.10;;;22.40;99.90;;;;;;5037343;28;20032;-66
2023/09/11 00:33:09;;;;;;;1.25;1.17;;;22.40;99.90;;;;;;5036591;28;20037;-67
2023/09/11 00:35:35;;;;;;;1.83;1.27;;;22.40;99.90;;;;;;5033757;28;20053;-66
2023/09/11 00:38:01;;;;;;;1.00;0.98;;;22.40;99.90;;;;;;5033670;28;20039;-66
2023/09/11 00:40:26;;;;;;;2.30;1.80;;;22.30;99.90;;;;;;5027251;28;20029;-66
2023/09/11 00:42:52;;;;;;;0.77;0.73;;;22.30;99.90;;;;;;5025237;28;20117;-66
2023/09/11 00:45:18;;;;;;;1.80;1.57;;;22.30;99.90;;;;;;5030889;28;20166;-66
2023/09/11 00:47:45;;;;;;;1.10;1.07;;;22.30;99.90;;;;;;5026217;28;20030;-66
2023/09/11 00:50:13;;;;;;;1.75;0.90;;;22.30;99.90;;;;;;5039880;28;20032;-66
2023/09/11 00:52:40;;;;;;;1.42;1.13;;;22.20;99.90;;;;;;5028669;28;20435;-66
2023/09/11 00:55:07;;;;;;;1.58;1.42;;;22.20;99.90;;;;;;5038100;28;20120;-66
2023/09/11 00:57:33;;;;;;;5.15;1.95;;;22.30;99.90;;;;;;5039077;28;20066;-75
2023/09/11 00:59:59;;;;;;;1.08;1.02;;;22.20;99.90;;;;;;5030758;28;20366;-66
2023/09/11 01:02:24;;;;;;;8.98;1.23;;;22.30;99.90;;;;;;5047913;28;20040;-66
2023/09/11 01:04:50;;;;;;;0.77;0.77;;;22.20;99.90;;;;;;5028530;28;20352;-66
2023/09/11 01:07:17;;;;;;;0.93;0.93;;;22.20;99.90;;;;;;5035331;28;20025;-66
2023/09/11 01:09:43;;;;;;;4.60;1.80;;;22.10;99.90;;;;;;5027982;28;20037;-66
2023/09/11 01:12:08;;;;;;;0.77;0.77;;;22.00;99.90;;;;;;5026452;28;20302;-66
2023/09/11 01:14:37;;;;;;;2.47;1.57;;;22.00;99.90;;;;;;5033780;28;20111;-67
2023/09/11 01:17:29;;;;;;;1.33;1.20;;;22.00;99.90;;;;;;5022040;28;20283;-66
2023/09/11 01:20:25;;;;;;;4.25;2.08;;;22.00;99.90;;;;;;5026125;28;20479;-66
2023/09/11 01:23:02;;;;;;;;;;;22.10;99.90;;;;;;5028877;28;20306;-76
2023/09/11 01:25:58;;;;;;;0.40;0.40;;;22.10;99.90;;;;;;5028566;28;19913;-66
2023/09/11 01:28:42;;;;;;;;;;;22.10;99.90;;;;;;5036857;28;20025;-66
2023/09/11 01:31:09;;;;;;;1.92;1.15;;;22.10;99.90;;;;;;5035149;28;19909;-66
2023/09/11 01:33:36;;;;;;;6.88;1.92;;;22.10;99.90;;;;;;5032382;28;20056;-67
2023/09/11 01:36:02;;;;;;;3.58;1.38;;;22.00;99.90;;;;;;5035716;28;20037;-66
2023/09/11 01:38:28;;;;;;;2.37;1.87;;;22.00;99.90;;;;;;5027812;28;20057;-66
2023/09/11 01:40:58;;;;;;;0.40;0.40;;;22.00;99.90;;;;;;5035935;28;20025;-66
2023/09/11 01:43:29;;;;;;;3.05;1.70;;;22.00;99.90;;;;;;5032149;28;20018;-67
2023/09/11 01:45:54;;;;;;;2.40;1.98;;;22.00;99.90;;;;;;5032607;28;20117;-66
2023/09/11 01:48:21;;;;;;;1.97;1.87;;;22.00;99.90;;;;;;5033086;28;20112;-66
2023/09/11 01:50:48;;;;;;;0.88;0.80;;;22.00;99.90;;;;;;5023805;28;20037;-67
2023/09/11 01:53:14;;;;;;;4.15;1.65;;;22.10;99.90;;;;;;5032494;28;20033;-67
2023/09/11 01:55:41;;;;;;;3.15;2.10;;;22.00;99.90;;;;;;5029252;28;20306;-66
2023/09/11 01:58:07;;;;;;;12.38;1.75;;;22.00;99.90;;;;;;5028107;28;20378;-75
2023/09/11 02:00:32;;;;;;;1.98;1.20;;;21.90;99.90;;;;;;5020943;28;20105;-66
2023/09/11 02:02:58;;;;;;;6.67;1.60;;;21.80;99.90;;;;;;5034360;28;20033;-66
2023/09/11 02:05:24;;;;;;;2.63;1.33;;;21.80;99.90;;;;;;5027864;28;20036;-66
2023/09/11 02:07:50;;;;;;;1.03;0.93;;;21.80;99.90;;;;;;5032251;28;20023;-67
2023/09/11 02:10:17;;;;;;;3.38;0.75;;;21.80;99.90;;;;;;5034784;28;20277;-66
2023/09/11 02:12:43;;;;;;;1.88;0.82;;;21.80;99.90;;;;;;5031855;28;20026;-66
2023/09/11 02:15:09;;;;;;;1.97;1.80;;;21.80;99.90;;;;;;5034378;28;20048;-66
2023/09/11 02:17:34;;;;;;;1.63;1.53;;;21.90;99.90;;;;;;5033519;28;20425;-68
2023/09/11 02:20:00;;;;;;;2.07;1.70;;;21.80;99.90;;;;;;5025830;28;20513;-66
2023/09/11 02:22:26;;;;;;;1.43;1.33;;;21.80;99.90;;;;;;5019744;28;20026;-66
2023/09/11 02:24:51;;;;;;;3.07;1.57;;;21.90;99.90;;;;;;5032224;28;20064;-67
2023/09/11 02:27:17;;;;;;;2.17;1.40;;;21.80;99.90;;;;;;5026023;28;20029;-67
2023/09/11 02:29:43;;;;;;;5.53;2.60;;;21.80;99.90;;;;;;5034893;28;20025;-66
2023/09/11 02:32:08;;;;;;;1.83;1.20;;;21.80;99.90;;;;;;5034000;28;20472;-66
2023/09/11 02:34:34;;;;;;;1.43;1.40;;;21.80;99.90;;;;;;5026683;28;20324;-71
2023/09/11 02:36:59;;;;;;;2.47;1.57;;;21.70;99.90;;;;;;5028775;28;20424;-67
2023/09/11 02:39:25;;;;;;;3.17;0.87;;;21.80;99.90;;;;;;5025577;28;20433;-66
2023/09/11 02:41:51;;;;;;;12.13;1.30;;;21.80;99.90;;;;;;5026942;28;20022;-66
2023/09/11 02:44:16;;;;;;;3.40;1.93;;;21.90;99.90;;;;;;5026832;28;20033;-66
2023/09/11 02:46:43;;;;;;;1.70;1.20;;;22.00;99.90;;;;;;5032163;28;20044;-66
2023/09/11 02:49:09;;;;;;;1.38;1.05;;;22.00;99.90;;;;;;5033248;28;20029;-66
2023/09/11 02:51:34;;;;;;;6.13;2.05;;;22.00;99.90;;;;;;5028296;28;20034;-68
2023/09/11 02:54:00;;;;;;;2.93;2.60;;;21.90;99.90;;;;;;5030672;28;20021;-66
2023/09/11 02:56:26;;;;;;;1.75;1.58;;;21.90;99.90;;;;;;5026285;28;20021;-66
2023/09/11 02:58:52;;;;;;;3.85;1.60;;;21.80;99.90;;;;;;5024790;28;20344;-66
2023/09/11 03:01:18;;;;;;;7.23;2.40;;;21.80;99.90;;;;;;5034448;28;20029;-67
2023/09/11 03:03:44;;;;;;;1.00;0.95;;;21.70;99.90;;;;;;5033736;28;20026;-66
2023/09/11 03:06:10;;;;;;;2.30;1.67;;;21.70;99.90;;;;;;5028066;28;20033;-66
2023/09/11 03:08:36;;;;;;;1.83;1.73;;;21.70;99.90;;;;;;5031209;28;20099;-66
2023/09/11 03:11:09;;;;;;;4.07;1.93;;;21.80;99.90;;;;;;5030312;28;20440;-66
2023/09/11 03:13:36;;;;;;;8.02;2.50;;;21.80;99.90;;;;;;5031269;28;20036;-66
2023/09/11 03:16:12;;;;;;;6.85;2.53;;;21.80;99.90;;;;;;5026643;28;20043;-66
2023/09/11 03:18:38;;;;;;;3.03;2.42;;;21.70;99.90;;;;;;5034719;28;20034;-66
2023/09/11 03:21:05;;;;;;;4.00;2.00;;;21.70;99.90;;;;;;5034661;28;20104;-66
2023/09/11 03:23:31;;;;;;;1.52;0.82;;;21.60;99.90;;;;;;5026217;28;20048;-66
2023/09/11 03:25:57;;;;;;;4.20;3.05;;;21.60;99.90;;;;;;5022744;28;20092;-67
2023/09/11 03:28:26;;;;;;;1.10;1.00;;;21.60;99.90;;;;;;5028978;28;20372;-66
2023/09/11 03:30:52;;;;;;;1.05;1.05;;;21.60;99.90;;;;;;5031952;28;20030;-65
2023/09/11 03:33:18;;;;;;;2.37;1.87;;;21.60;99.90;;;;;;5023455;28;20306;-67
2023/09/11 03:35:46;;;;;;;4.63;2.47;;;21.60;99.90;;;;;;5030316;28;20044;-66
2023/09/11 03:38:13;;;;;;;5.68;2.20;;;21.50;99.90;;;;;;5023322;28;20029;-66
2023/09/11 03:40:39;;;;;;;3.33;2.78;;;21.50;99.90;;;;;;5021399;28;20017;-66
2023/09/11 03:43:05;;;;;;;4.82;1.70;;;21.40;99.90;;;;;;5030112;28;20038;-66
2023/09/11 03:45:30;;;;;;;5.38;2.10;;;21.40;99.90;;;;;;5027415;28;20155;-66
2023/09/11 03:47:56;;;;;;;2.53;1.30;;;21.30;99.90;;;;;;5030509;28;20108;-66
2023/09/11 03:50:22;;;;;;;2.77;1.67;;;21.20;99.90;;;;;;5033404;28;20872;-66
2023/09/11 03:52:47;;;;;;;1.23;0.70;;;21.20;99.90;;;;;;5029039;28;20329;-66
2023/09/11 03:55:13;;;;;;;3.80;2.50;;;21.20;99.90;;;;;;5032423;28;20338;-66
2023/09/11 03:57:39;;;;;;;2.70;2.23;;;21.10;99.90;;;;;;5027542;28;20029;-66
2023/09/11 04:00:07;;;;;;;3.20;1.88;;;21.20;99.90;;;;;;5020387;28;20278;-66
2023/09/11 04:02:33;;;;;;;3.97;2.17;;;21.20;99.90;;;;;;5028122;28;20079;-66
2023/09/11 04:04:59;;;;;;;5.30;2.78;;;21.20;99.90;;;;;;5020971;28;20295;-66
2023/09/11 04:07:25;;;;;;;5.50;2.47;;;21.20;99.90;;;;;;5021944;28;20030;-68
2023/09/11 04:09:50;;;;;;;3.20;2.60;;;21.30;99.90;;;;;;5033519;28;20040;-66
2023/09/11 04:12:17;;;;;;;1.97;1.83;;;21.30;99.90;;;;;;5032972;28;20053;-66
2023/09/11 04:14:45;;;;;;;7.05;2.67;;;21.30;99.90;;;;;;5033137;28;20095;-66
2023/09/11 04:17:11;;;;;;;6.10;2.72;;;21.30;99.90;;;;;;5029475;28;20433;-76
2023/09/11 04:19:38;;;;;;;4.70;1.57;;;21.20;99.90;;;;;;5017589;28;20033;-66
2023/09/11 04:22:04;;;;;;;7.15;3.47;;;21.20;99.90;;;;;;5026840;28;20188;-66
2023/09/11 04:24:31;;;;;;;6.80;2.08;;;21.20;99.90;;;;;;5031989;28;20044;-76
2023/09/11 04:26:56;;;;;;;4.05;2.83;;;21.10;99.90;;;;;;5030914;28;20437;-66
2023/09/11 04:29:22;;;;;;;1.87;1.77;;;21.10;99.90;;;;;;5029085;28;20041;-67
2023/09/11 04:31:48;;;;;;;2.63;2.43;;;21.10;99.90;;;;;;5025268;28;20036;-66
2023/09/11 04:34:13;;;;;;;2.53;1.83;;;21.10;99.90;;;;;;5028405;28;20096;-67
2023/09/11 04:36:39;;;;;;;6.97;3.23;;;21.00;99.90;;;;;;5032175;28;20113;-66
2023/09/11 04:39:05;;;;;;;7.83;2.90;;;20.90;99.90;;;;;;5025110;28;20443;-66
2023/09/11 04:41:30;;;;;;;3.30;1.33;;;20.90;99.90;;;;;;5021673;28;20080;-76
2023/09/11 04:43:56;;;;;;;5.60;1.67;;;20.80;99.90;;;;;;5029326;28;20026;-66
2023/09/11 04:46:21;;;;;;;4.63;2.80;;;20.80;99.90;;;;;;5030299;28;20113;-66
2023/09/11 04:48:47;;;;;;;3.13;2.90;;;20.80;99.90;;;;;;5027019;28;20409;-66
2023/09/11 04:51:13;;;;;;;4.90;2.33;;;20.80;99.90;;;;;;5026517;28;20420;-67
2023/09/11 04:53:38;;;;;;;6.93;1.77;;;20.70;99.90;;;;;;5033391;28;20104;-65
2023/09/11 04:56:04;;;;;;;5.87;1.73;;;20.70;99.90;;;;;;5028851;28;20475;-66
2023/09/11 04:58:30;;;;;;;4.93;3.03;;;20.70;99.90;;;;;;5026510;28;20425;-66
2023/09/11 05:00:56;;;;;;;4.80;2.10;;;20.70;99.90;;;;;;5034602;28;20075;-66
2023/09/11 05:03:21;;;;;;;5.27;2.87;;;20.70;99.90;;;;;;5021540;28;20152;-66
2023/09/11 05:05:48;;;;;;;4.00;2.70;;;20.70;99.90;;;;;;5023045;28;20030;-66
2023/09/11 05:08:14;;;;;;;3.28;2.58;;;20.80;99.90;;;;;;5035716;28;20029;-72
2023/09/11 05:10:44;;;;;;;6.28;3.30;;;20.70;99.90;;;;;;5031211;28;20640;-66
2023/09/11 05:13:13;;;;;;;2.03;1.67;;;20.80;99.90;;;;;;5028294;28;20041;-66
2023/09/11 05:15:39;;;;;;;5.00;2.10;;;20.80;99.90;;;;;;5032547;28;20294;-75
2023/09/11 05:18:05;;;;;;;1.50;1.40;;;20.80;99.90;;;;;;5036319;28;20032;-66
2023/09/11 05:20:31;;;;;;;7.15;2.30;;;20.90;99.90;;;;;;5033944;28;20113;-66
2023/09/11 05:22:57;;;;;;;5.20;3.70;;;20.80;99.90;;;;;;5042265;28;20112;-66
2023/09/11 05:25:24;;;;;;;3.00;1.95;;;20.90;99.90;;;;;;5038078;28;20045;-75
2023/09/11 05:27:50;;;;;;;4.22;2.70;;;20.90;99.90;;;;;;5035032;28;20787;-66
2023/09/11 05:30:16;;;;;;;2.87;2.20;;;20.90;99.90;;;;;;5029314;28;20412;-66
2023/09/11 05:32:41;;;;;;;2.57;2.03;;;20.90;99.90;;;;;;5035032;28;20025;-75
2023/09/11 05:35:07;;;;;;;2.77;2.50;;;20.90;99.90;;;;;;5034358;28;20117;-66
2023/09/11 05:37:33;;;;;;;14.32;3.80;;;20.90;99.90;;;;;;5037724;28;20033;-75
2023/09/11 05:40:00;;;;;;;3.07;2.43;;;20.90;99.90;;;;;;5039878;28;20048;-67
2023/09/11 05:42:26;;;;;;;2.97;2.42;;;20.90;99.90;;;;;;5032415;28;20347;-67
2023/09/11 05:44:52;;;;;;;2.28;1.95;;;20.90;99.90;;;;;;5034389;28;20448;-66
2023/09/11 05:47:19;;;;;;;3.97;2.85;;;20.90;99.90;;;;;;5033543;28;20100;-67
2023/09/11 05:49:44;;;;;;;;;;;20.90;99.90;;;;;;5037170;28;20420;-66
2023/09/11 05:52:10;;;;;;;4.50;3.58;;;20.90;99.90;;;;;;5031042;28;19959;-67
2023/09/11 05:54:36;;;;;;;3.67;2.50;;;20.90;99.90;;;;;;5025363;28;20103;-66
2023/09/11 05:57:02;;;;;;;4.37;3.23;;;20.90;99.90;;;;;;5024879;28;20026;-67
2023/09/11 05:59:28;;;;;;;;;;;20.90;99.90;;;;;;5026991;28;20029;-67
2023/09/11 06:01:53;;;;;;;2.38;1.70;;;20.90;99.90;;;;;;5033223;28;19917;-66
2023/09/11 06:04:19;;;;;;;15.73;3.30;;;21.00;99.90;;;;;;5040642;28;20361;-66
2023/09/11 06:06:45;;;;;;;4.00;2.90;;;21.00;99.90;;;;;;5031832;28;20060;-67
2023/09/11 06:09:10;;;;;;;4.07;1.80;;;21.00;99.90;;;;;;5033663;28;20025;-67
2023/09/11 06:11:36;;;;;;;4.20;2.63;;;21.00;99.90;;;;;;5027545;28;20033;-67
2023/09/11 06:14:04;;;;;;;6.40;1.63;;;21.00;99.90;;;;;;5023907;28;20437;-66
2023/09/11 06:16:30;;;;;;;4.43;2.75;;;21.10;99.90;;;;;;5033796;28;20316;-67
2023/09/11 06:18:57;;;;;;;3.03;2.77;;;21.10;99.90;;;;;;5025921;28;20022;-67
2023/09/11 06:21:23;;;;;;;4.53;2.70;;;21.10;99.90;;;;;;5025459;28;20025;-66
2023/09/11 06:23:48;;;;;;;4.30;1.60;;;21.20;99.90;;;;;;5035688;28;20021;-66
2023/09/11 06:26:14;;;;;;;2.50;1.70;;;21.20;99.90;;;;;;5037726;28;20383;-72
2023/09/11 06:28:40;;;;;;;0.97;0.97;;;21.30;99.90;;;;;;5030389;28;20056;-66
2023/09/11 06:31:06;;;;;;;2.13;1.93;;;21.40;99.90;;;;;;5034272;28;20116;-67
2023/09/11 06:33:31;;;;;;;4.30;2.22;;;21.50;99.90;;;;;;5030614;28;20029;-75
2023/09/11 06:35:57;;;;;;;5.97;1.53;;;21.60;99.90;;;;;;5031920;28;20030;-66
2023/09/11 06:38:23;;;;;;;4.93;1.87;;;21.70;99.90;;;;;;5026920;28;20096;-67
2023/09/11 06:40:48;;;;;;;0.80;0.80;;;21.70;99.90;;;;;;5033049;28;20064;-66
2023/09/11 06:43:14;;;;;;;3.50;1.97;;;21.80;99.90;;;;;;5031102;28;20029;-74
2023/09/11 06:45:41;;;;;;;2.17;1.53;;;21.80;99.90;;;;;;5032588;28;20079;-67
2023/09/11 06:48:11;;;;;;;0.80;0.77;;;21.90;99.90;;;;;;5028878;28;20021;-67
2023/09/11 06:50:36;;;;;;;2.03;0.70;;;21.90;99.90;;;;;;5027581;28;20025;-70
2023/09/11 06:53:02;;;;;;;1.30;0.95;;;21.90;99.90;;;;;;5031088;28;20412;-67
2023/09/11 06:55:28;;;;;;;1.40;1.30;;;21.90;99.90;;;;;;5031524;28;20033;-67
2023/09/11 06:57:58;;;;;;;1.93;1.77;;;22.00;99.90;;;;;;5033142;28;20340;-67
2023/09/11 07:00:24;;;;;;;5.25;1.75;;;22.00;99.90;;;;;;5039419;28;20075;-67
2023/09/11 07:02:50;;;;;;;4.78;2.22;;;22.00;99.90;;;;;;5033569;28;20036;-67
2023/09/11 07:05:23;;;;;;;1.60;1.50;;;22.10;99.90;;;;;;5034894;28;20034;-67
2023/09/11 07:07:49;;;;;;;4.15;1.90;;;22.20;99.90;;;;;;5032665;28;20031;-68
2023/09/11 07:10:17;;;;;;;6.68;1.08;;;22.30;99.90;;;;;;5030156;28;20129;-67
2023/09/11 07:12:46;;;;;;;3.00;1.52;;;22.30;99.90;;;;;;5032485;28;20328;-66
2023/09/11 07:15:12;;;;;;;6.03;2.58;;;22.50;99.90;;;;;;5034165;28;20026;-74
2023/09/11 07:17:38;;;;;;;1.38;1.25;;;22.70;99.90;;;;;;5028444;28;20037;-67
2023/09/11 07:20:05;;;;;;;2.07;1.20;;;22.90;99.90;;;;;;5019734;28;20033;-67
2023/09/11 07:22:31;;;;;;;4.75;2.25;;;23.10;99.90;;;;;;5032074;28;20033;-67
2023/09/11 07:24:57;;;;;;;3.17;1.75;;;23.30;99.90;;;;;;5033735;28;20086;-67
2023/09/11 07:27:24;;;;;;;1.52;1.42;;;23.50;99.90;;;;;;5026036;28;20425;-67
2023/09/11 07:29:49;;;;;;;1.63;1.52;;;23.60;99.90;;;;;;5027951;28;20034;-67
2023/09/11 07:32:15;;;;;;;0.97;0.97;;;23.60;99.90;;;;;;5024325;28;20424;-68
2023/09/11 07:34:42;;;;;;;3.70;2.20;;;23.70;99.90;;;;;;5022525;28;20424;-67
2023/09/11 07:37:08;;;;;;;1.00;1.00;;;23.70;99.90;;;;;;5029745;28;20037;-67
2023/09/11 07:39:33;;;;;;;3.83;1.50;;;23.80;99.90;;;;;;5034373;28;20564;-67
2023/09/11 07:41:59;;;;;;;6.03;2.45;;;24.00;99.90;;;;;;5024591;28;20160;-67
2023/09/11 07:44:25;;;;;;;1.57;1.37;;;24.20;99.90;;;;;;5030211;28;20336;-67
2023/09/11 07:46:50;;;;;;;3.90;2.10;;;24.40;99.90;;;;;;5033302;28;20060;-67
2023/09/11 07:49:16;;;;;;;2.10;1.73;;;24.50;99.90;;;;;;5033395;28;20025;-74
2023/09/11 07:51:42;;;;;;;2.83;1.17;;;24.70;99.90;;;;;;5033381;28;20301;-68
2023/09/11 07:54:07;;;;;;;2.00;1.83;;;24.70;99.90;;;;;;5034424;28;20025;-68
2023/09/11 07:56:33;;;;;;;0.93;0.93;;;24.80;99.90;;;;;;5038492;28;20424;-67
2023/09/11 07:59:01;;;;;;;1.07;0.80;;;25.00;99.90;;;;;;5032608;28;20324;-68
2023/09/11 08:01:27;;;;;;;7.15;1.30;;;25.00;99.90;;;;;;5031442;28;20037;-67
2023/09/11 08:03:52;;;;;;;1.45;1.35;;;25.20;99.90;;;;;;5027685;28;20022;-67
2023/09/11 08:06:22;;;;;;;3.08;2.13;;;25.30;99.90;;;;;;5030966;28;20034;-76
2023/09/11 08:08:48;;;;;;;1.70;0.98;;;25.40;99.90;;;;;;5040360;28;20091;-68
2023/09/11 08:11:16;;;;;;;5.97;2.05;;;25.40;99.90;;;;;;5027761;28;20033;-67
2023/09/11 08:13:43;;;;;;;3.30;2.47;;;25.50;99.90;;;;;;5032350;28;20112;-67
2023/09/11 08:16:09;;;;;;;3.40;1.48;;;25.50;99.90;;;;;;5021174;28;20113;-68
2023/09/11 08:18:35;;;;;;;3.50;1.65;;;25.70;99.90;;;;;;5025184;28;20118;-67
2023/09/11 08:21:00;;;;;;;1.85;1.75;;;25.80;99.90;;;;;;5020289;28;20034;-67
2023/09/11 08:23:26;;;;;;;9.32;1.10;;;25.90;99.90;;;;;;5025674;28;20033;-68
2023/09/11 08:26:01;;;;;;;2.65;1.50;;;26.00;99.90;;;;;;5033497;28;20046;-68
2023/09/11 08:28:30;;;;;;;4.00;2.40;;;26.10;99.90;;;;;;5041744;28;20309;-68
2023/09/11 08:30:56;;;;;;;1.45;0.95;;;26.10;99.90;;;;;;5041775;28;20304;-69
2023/09/11 08:33:22;;;;;;;3.25;1.17;;;26.20;99.90;;;;;;5043690;28;20036;-68
2023/09/11 08:35:48;;;;;;;1.65;1.23;;;26.30;99.90;;;;;;5021870;28;20113;-68
2023/09/11 08:38:18;;;;;;;1.73;1.48;;;26.40;99.90;;;;;;5031230;28;20029;-68
2023/09/11 08:40:44;;;;;;;2.80;1.27;;;26.50;99.90;;;;;;5032428;28;20337;-67
2023/09/11 08:43:10;;;;;;;4.03;1.65;;;26.60;99.90;;;;;;5039150;28;20102;-68
2023/09/11 08:45:37;;;;;;;24.17;1.23;;;26.70;99.90;;;;;;5039935;28;20041;-68
2023/09/11 08:48:09;;;;;;;1.35;1.25;;;26.70;99.90;;;;;;5034264;28;20045;-68
2023/09/11 08:50:39;;;;;;;1.85;1.20;;;26.80;99.90;;;;;;5027939;28;20377;-68
2023/09/11 08:53:05;;;;;;;1.73;1.38;;;26.90;99.90;;;;;;5032108;28;20388;-68
2023/09/11 08:55:33;;;;;;;;;;;26.90;99.90;;;;;;5038168;28;20033;-69
2023/09/11 08:58:06;;;;;;;0.93;0.73;;;27.00;99.90;;;;;;5042241;28;20373;-68
2023/09/11 09:00:32;;;;;;;0.70;0.70;;;27.10;99.90;;;;;;5033898;28;20025;-68
2023/09/11 09:03:00;;;;;;;2.25;1.00;;;27.30;99.90;;;;;;5032925;28;20029;-68
2023/09/11 09:05:26;;;;;;;3.08;0.50;;;27.20;99.90;;;;;;5038927;28;20452;-68
2023/09/11 09:07:53;;;;;;;0.75;0.75;;;27.30;99.90;;;;;;5033663;28;20033;-67
2023/09/11 09:10:19;;;;;;;2.60;0.82;;;27.30;99.90;;;;;;5034880;28;20120;-75
2023/09/11 09:12:45;;;;;;;1.13;1.02;;;27.30;99.90;;;;;;5043701;28;20112;-67
2023/09/11 09:15:12;;;;;;;7.78;0.95;;;27.30;99.90;;;;;;5037849;28;20041;-68
2023/09/11 09:17:38;;;;;;;0.25;0.25;;;27.40;99.90;;;;;;5029485;28;20030;-68
2023/09/11 09:20:04;;;;;;;0.70;0.70;;;27.40;99.90;;;;;;5031029;28;20443;-68
2023/09/11 09:22:30;;;;;;;0.30;0.30;;;27.40;99.90;;;;;;5030059;28;20056;-68
2023/09/11 09:24:56;;;;;;;0.57;0.57;;;27.50;99.90;;;;;;5032263;28;20080;-68
2023/09/11 09:27:25;;;;;;;0.60;0.52;;;27.50;99.90;;;;;;5033415;28;20065;-68
2023/09/11 09:29:51;;;;;;;0.40;0.40;;;27.50;99.90;;;;;;5034831;28;20041;-68
2023/09/11 09:32:17;;;;;;;0.28;0.28;;;27.50;99.90;;;;;;5032587;28;20021;-68
2023/09/11 09:34:54;;;;;;;1.08;0.73;;;27.60;99.90;;;;;;5030826;28;20029;-68
2023/09/11 09:37:21;;;;;;;1.35;1.15;;;27.60;99.90;;;;;;5032846;28;20025;-68
2023/09/11 09:39:48;;;;;;;0.30;0.30;;;27.70;99.90;;;;;;5028587;28;20371;-68
2023/09/11 09:42:15;;;;;;;1.20;0.65;;;27.80;99.90;;;;;;5035882;28;20031;-69
2023/09/11 09:44:48;;;;;;;0.38;0.38;;;27.90;99.90;;;;;;5036070;28;20044;-69
2023/09/11 09:47:18;;;;;;;1.80;0.60;;;27.90;99.90;;;;;;5029822;28;20021;-67
2023/09/11 09:49:57;;;;;;;0.70;0.60;;;27.80;99.90;;;;;;5042613;28;20025;-77
2023/09/11 09:52:27;;;;;;;0.95;0.60;;;27.90;99.90;;;;;;5037571;28;20355;-68
2023/09/11 09:54:58;;;;;;;0.82;0.57;;;27.90;99.90;;;;;;5032804;28;20064;-68
2023/09/11 09:57:25;;;;;;;0.57;0.30;;;28.00;99.90;;;;;;5037310;28;20022;-68
2023/09/11 09:59:59;;;;;;;1.13;1.02;;;28.00;99.90;;;;;;5037160;28;20026;-68
2023/09/11 10:02:30;;;;;;;0.38;0.38;;;28.10;99.90;;;;;;5039220;28;20080;-68
2023/09/11 10:04:58;;;;;;;0.20;0.20;;;28.00;99.90;;;;;;5029980;28;20029;-68
2023/09/11 10:07:39;;;;;;;5.82;0.47;;;28.10;99.90;;;;;;5030806;28;20036;-68
2023/09/11 10:10:25;;;;;;;1.00;0.70;;;28.10;99.90;;;;;;5038885;28;20057;-70
2023/09/11 10:12:54;;;;;;;;;;;28.00;99.90;;;;;;5035404;28;20036;-68
2023/09/11 10:15:21;;;;;;;0.63;0.63;;;27.90;99.90;;;;;;5028963;28;19909;-75
2023/09/11 10:17:49;;;;;;;1.33;0.70;;;27.80;99.90;;;;;;5027823;28;20084;-69
2023/09/11 10:20:15;;;;;;;0.82;0.60;;;27.80;99.90;;;;;;5031281;28;20040;-76
2023/09/11 10:22:41;;;;;;;1.70;1.38;;;27.90;99.90;;;;;;5034414;28;20021;-76
2023/09/11 10:25:07;;;;;;;0.32;0.32;;;27.90;99.90;;;;;;5034842;28;20104;-69
2023/09/11 10:27:33;;;;;;;0.43;0.43;;;27.90;99.90;;;;;;5024831;28;20091;-69
2023/09/11 10:30:08;;;;;;;1.05;1.05;;;27.90;99.90;;;;;;5031362;28;20416;-69
2023/09/11 10:32:45;;;;;;;0.70;0.70;;;27.90;99.90;;;;;;5035982;28;20029;-68
2023/09/11 10:35:11;;;;;;;3.53;1.05;;;27.90;99.90;;;;;;5032722;28;20032;-76
2023/09/11 10:37:41;;;;;;;1.23;0.88;;;27.80;99.90;;;;;;5034157;28;20034;-69
2023/09/11 10:40:08;;;;;;;2.05;0.60;;;27.90;99.90;;;;;;5028749;28;20040;-68
2023/09/11 10:42:34;;;;;;;1.23;1.13;;;27.90;99.90;;;;;;5030150;28;20034;-69
2023/09/11 10:45:02;;;;;;;1.20;0.70;;;27.90;99.90;;;;;;5032228;28;20046;-68
2023/09/11 10:47:27;;;;;;;3.30;1.55;;;27.80;99.90;;;;;;5031359;28;20037;-68
2023/09/11 10:49:57;;;;;;;4.18;1.23;;;27.80;99.90;;;;;;5025179;28;20511;-69
2023/09/11 10:52:24;;;;;;;2.17;0.45;;;27.70;99.90;;;;;;5030903;28;20099;-73
2023/09/11 10:54:50;;;;;;;1.20;0.90;;;27.70;99.90;;;;;;5028785;28;20018;-74
2023/09/11 10:57:16;;;;;;;0.43;0.43;;;27.60;99.90;;;;;;5026543;28;20102;-68
2023/09/11 10:59:42;;;;;;;0.68;0.65;;;27.60;99.90;;;;;;5028394;28;20032;-68
2023/09/11 11:02:08;;;;;;;0.45;0.43;;;27.70;99.90;;;;;;5029602;28;20071;-69
2023/09/11 11:04:34;;;;;;;1.52;1.10;;;27.70;99.90;;;;;;5024928;28;20033;-68
2023/09/11 11:07:02;;;;;;;1.25;0.98;;;27.60;99.90;;;;;;5031298;28;20052;-69
2023/09/11 11:09:32;;;;;;;0.60;0.60;;;27.70;99.90;;;;;;5021462;28;20028;-69
2023/09/11 11:12:13;;;;;;;1.08;0.65;;;27.70;99.90;;;;;;5031044;28;20032;-68
2023/09/11 11:14:39;;;;;;;3.63;1.15;;;27.70;99.90;;;;;;5029429;28;20428;-69
2023/09/11 11:17:11;;;;;;;2.10;1.13;;;27.80;99.90;;;;;;5030376;28;20357;-68
2023/09/11 11:19:50;;;;;;;0.73;0.55;;;27.80;99.90;;;;;;5030487;28;20033;-68
2023/09/11 11:22:33;;;;;;;1.95;0.90;;;27.80;99.90;;;;;;5028301;28;20026;-68
2023/09/11 11:25:03;;;;;;;0.50;0.50;;;27.70;99.90;;;;;;5029763;28;20034;-68
2023/09/11 11:27:29;;;;;;;1.15;1.05;;;27.70;99.90;;;;;;5034114;28;20025;-69
2023/09/11 11:29:56;;;;;;;0.10;0.10;;;27.60;99.90;;;;;;5028617;28;20078;-68
2023/09/11 11:32:22;;;;;;;1.33;0.98;;;27.60;99.90;;;;;;5031254;28;20037;-69
2023/09/11 11:34:50;;;;;;;0.60;0.60;;;27.60;99.90;;;;;;5032382;28;20039;-69
2023/09/11 11:37:20;;;;;;;10.32;1.45;;;27.60;99.90;;;;;;5033326;28;20116;-68
2023/09/11 11:39:46;;;;;;;3.42;1.42;;;27.60;99.90;;;;;;5042061;28;20021;-69
2023/09/11 11:42:13;;;;;;;2.72;1.02;;;27.70;99.90;;;;;;5034040;28;20021;-69
2023/09/11 11:44:40;;;;;;;0.98;0.93;;;27.60;99.90;;;;;;5031184;28;20053;-68
2023/09/11 11:47:07;;;;;;;3.78;1.98;;;27.60;99.90;;;;;;5032562;28;20037;-68
2023/09/11 11:49:35;;;;;;;0.28;0.28;;;27.60;99.90;;;;;;5031132;28;20033;-69
2023/09/11 11:52:03;;;;;;;0.55;0.52;;;27.60;99.90;;;;;;5028028;28;20084;-69
2023/09/11 11:54:29;;;;;;;1.65;1.08;;;27.60;99.90;;;;;;5031028;28;20091;-68
2023/09/11 11:56:58;;;;;;;0.82;0.82;;;27.60;99.90;;;;;;5031252;28;20748;-69
2023/09/11 11:59:33;;;;;;;1.45;1.35;;;27.60;99.90;;;;;;5030782;28;20120;-68
2023/09/11 12:01:59;;;;;;;0.65;0.65;;;27.70;99.90;;;;;;5033357;28;20064;-69
2023/09/11 12:04:26;;;;;;;1.30;1.20;;;27.70;99.90;;;;;;5040239;28;20061;-69
2023/09/11 12:06:57;;;;;;;0.80;0.68;;;27.60;99.90;;;;;;5033356;28;20045;-68
2023/09/11 12:09:23;;;;;;;2.95;1.33;;;27.50;99.90;;;;;;5031098;28;20025;-69
2023/09/11 12:11:50;;;;;;;;;;;27.60;99.90;;;;;;5029825;28;20025;-69
2023/09/11 12:14:17;;;;;;;1.40;1.30;;;27.60;99.90;;;;;;5030190;28;20247;-68
2023/09/11 12:16:43;;;;;;;1.23;1.10;;;27.60;99.90;;;;;;5030239;28;20289;-68
2023/09/11 12:19:09;;;;;;;2.00;1.27;;;27.60;99.90;;;;;;5032308;28;20028;-77
2023/09/11 12:21:35;;;;;;;3.08;1.27;;;27.70;99.90;;;;;;5027285;28;20029;-76
2023/09/11 12:24:01;;;;;;;4.40;1.13;;;27.80;99.90;;;;;;5022696;28;20018;-76
2023/09/11 12:26:28;;;;;;;12.05;1.85;;;27.80;99.90;;;;;;5022788;28;20058;-68
2023/09/11 12:28:55;;;;;;;9.35;2.30;;;27.80;99.90;;;;;;5023746;28;20072;-73
2023/09/11 12:31:21;;;;;;;1.30;1.20;;;27.70;99.90;;;;;;5027262;28;20025;-68
2023/09/11 12:33:54;;;;;;;1.40;0.90;;;27.70;99.90;;;;;;5029684;28;20029;-69
2023/09/11 12:36:22;;;;;;;3.15;1.13;;;27.70;99.90;;;;;;5022845;28;20037;-68
2023/09/11 12:38:51;;;;;;;16.30;1.85;;;27.70;99.90;;;;;;5024075;28;20387;-68
2023/09/11 12:41:19;;;;;;;0.65;0.65;;;27.70;99.90;;;;;;5022312;28;20326;-69
2023/09/11 12:43:45;;;;;;;2.58;1.70;;;27.70;99.90;;;;;;5026198;28;20030;-69
2023/09/11 12:46:15;;;;;;;8.05;2.10;;;27.60;99.90;;;;;;5032507;28;20033;-69
2023/09/11 12:48:43;;;;;;;3.25;1.23;;;27.70;99.90;;;;;;5021181;28;20052;-69